sensor_id;sensor_type;location;lat;lon;timestamp;temperature;humidity
18163;DHT22;9206;50.994;4.538;2023-08-31T00:02:29;11.60;99.90
18163;DHT22;9206;50.994;4.538;2023-08-31T00:05:17;11.50;99.90
18163;DHT22;9206;50.994;4.538;2023-08-31T00:08:05;11.50;99.90
18163;DHT22;9206;50.994;4.538;2023-08-31T00:10:56;11.50;99.90
18163;DHT22;9206;50.994;4.538;2023-08-31T00:13:45;11.50;99.90
18163;DHT22;9206;50.994;4.538;2023-08-31T00:16:35;11.50;99.90
18163;DHT22;9206;50.994;4.538;2023-08-31T00:19:26;11.50;99.90
18163;DHT22;9206;50.994;4.538;2023-08-31T00:22:16;11.50;99.90
18163;DHT22;9206;50.994;4.538;2023-08-31T00:25:06;11.50;99.90
18163;DHT22;9206;50.994;4.538;2023-08-31T00:27:56;11.50;99.90
18163;DHT22;9206;50.994;4.538;2023-08-31T00:30:53;11.50;99.90
18163;DHT22;9206;50.994;4.538;2023-08-31T00:33:42;11.40;99.90
18163;DHT22;9206;50.994;4.538;2023-08-31T00:36:36;11.40;99.90
18163;DHT22;9206;50.994;4.538;2023-08-31T00:39:31;11.50;99.90
18163;DHT22;9206;50.994;4.538;2023-08-31T00:42:20;11.40;99.90
18163;DHT22;9206;50.994;4.538;2023-08-31T00:45:09;11.40;99.90
18163;DHT22;9206;50.994;4.538;2023-08-31T00:47:56;11.40;99.90
18163;DHT22;9206;50.994;4.538;2023-08-31T00:50:44;11.30;99.90
18163;DHT22;9206;50.994;4.538;2023-08-31T00:53:39;11.30;99.90
18163;DHT22;9206;50.994;4.538;2023-08-31T00:56:28;11.30;99.90
18163;DHT22;9206;50.994;4.538;2023-08-31T00:59:30;11.20;99.90
18163;DHT22;9206;50.994;4.538;2023-08-31T01:02:20;11.20;99.90
18163;DHT22;9206;50.994;4.538;2023-08-31T01:05:16;11.20;99.90
18163;DHT22;9206;50.994;4.538;2023-08-31T01:08:18;11.10;99.90
18163;DHT22;9206;50.994;4.538;2023-08-31T01:14:56;11.10;99.90
18163;DHT22;9206;50.994;4.538;2023-08-31T01:17:48;11.10;99.90
18163;DHT22;9206;50.994;4.538;2023-08-31T01:20:42;11.10;99.90
18163;DHT22;9206;50.994;4.538;2023-08-31T01:23:49;11.10;99.90
18163;DHT22;9206;50.994;4.538;2023-08-31T01:26:37;11.10;99.90
18163;DHT22;9206;50.994;4.538;2023-08-31T01:29:25;11.20;99.90
18163;DHT22;9206;50.994;4.538;2023-08-31T01:32:18;11.20;99.90
18163;DHT22;9206;50.994;4.538;2023-08-31T01:35:14;11.10;99.90
18163;DHT22;9206;50.994;4.538;2023-08-31T01:38:06;11.20;99.90
18163;DHT22;9206;50.994;4.538;2023-08-31T01:41:02;11.20;99.90
18163;DHT22;9206;50.994;4.538;2023-08-31T01:43:52;11.20;99.90
18163;DHT22;9206;50.994;4.538;2023-08-31T01:46:51;11.20;99.90
18163;DHT22;9206;50.994;4.538;2023-08-31T01:49:40;11.10;99.90
18163;DHT22;9206;50.994;4.538;2023-08-31T01:52:29;11.10;99.90
18163;DHT22;9206;50.994;4.538;2023-08-31T01:55:17;11.20;99.90
18163;DHT22;9206;50.994;4.538;2023-08-31T01:58:07;11.20;99.90
18163;DHT22;9206;50.994;4.538;2023-08-31T02:00:55;11.20;99.90
18163;DHT22;9206;50.994;4.538;2023-08-31T02:03:48;11.20;99.90
18163;DHT22;9206;50.994;4.538;2023-08-31T02:06:39;11.20;99.90
18163;DHT22;9206;50.994;4.538;2023-08-31T02:09:26;11.20;99.90
18163;DHT22;9206;50.994;4.538;2023-08-31T02:12:16;11.20;99.90
18163;DHT22;9206;50.994;4.538;2023-08-31T02:15:11;11.30;99.90
18163;DHT22;9206;50.994;4.538;2023-08-31T02:17:59;11.30;99.90
18163;DHT22;9206;50.994;4.538;2023-08-31T02:20:48;11.20;99.90
18163;DHT22;9206;50.994;4.538;2023-08-31T02:23:40;11.30;99.90
18163;DHT22;9206;50.994;4.538;2023-08-31T02:26:28;11.20;99.90
18163;DHT22;9206;50.994;4.538;2023-08-31T02:29:17;11.30;99.90
18163;DHT22;9206;50.994;4.538;2023-08-31T02:32:08;11.20;99.90
18163;DHT22;9206;50.994;4.538;2023-08-31T02:35:15;11.30;99.90
18163;DHT22;9206;50.994;4.538;2023-08-31T02:38:05;11.30;99.90
18163;DHT22;9206;50.994;4.538;2023-08-31T02:40:59;11.30;99.90
18163;DHT22;9206;50.994;4.538;2023-08-31T02:43:50;11.30;99.90
18163;DHT22;9206;50.994;4.538;2023-08-31T02:46:40;11.30;99.90
18163;DHT22;9206;50.994;4.538;2023-08-31T02:49:30;11.30;99.90
18163;DHT22;9206;50.994;4.538;2023-08-31T02:52:36;11.30;99.90
18163;DHT22;9206;50.994;4.538;2023-08-31T02:55:27;11.40;99.90
18163;DHT22;9206;50.994;4.538;2023-08-31T02:58:18;11.40;99.90
18163;DHT22;9206;50.994;4.538;2023-08-31T03:01:10;11.50;99.90
18163;DHT22;9206;50.994;4.538;2023-08-31T03:03:59;11.40;99.90
18163;DHT22;9206;50.994;4.538;2023-08-31T03:06:54;11.40;99.90
18163;DHT22;9206;50.994;4.538;2023-08-31T03:09:48;11.40;99.90
18163;DHT22;9206;50.994;4.538;2023-08-31T03:12:40;11.40;99.90
18163;DHT22;9206;50.994;4.538;2023-08-31T03:15:36;11.50;99.90
18163;DHT22;9206;50.994;4.538;2023-08-31T03:18:36;11.50;99.90
18163;DHT22;9206;50.994;4.538;2023-08-31T03:21:34;11.50;99.90
18163;DHT22;9206;50.994;4.538;2023-08-31T03:28:06;11.50;99.90
18163;DHT22;9206;50.994;4.538;2023-08-31T03:31:00;11.60;99.90
18163;DHT22;9206;50.994;4.538;2023-08-31T03:33:53;11.60;99.90
18163;DHT22;9206;50.994;4.538;2023-08-31T03:36:44;11.60;99.90
18163;DHT22;9206;50.994;4.538;2023-08-31T03:39:39;11.60;99.90
18163;DHT22;9206;50.994;4.538;2023-08-31T03:42:34;11.60;99.90
18163;DHT22;9206;50.994;4.538;2023-08-31T03:45:26;11.70;99.90
18163;DHT22;9206;50.994;4.538;2023-08-31T03:48:38;11.60;99.90
18163;DHT22;9206;50.994;4.538;2023-08-31T03:51:29;11.70;99.90
18163;DHT22;9206;50.994;4.538;2023-08-31T03:54:56;11.70;99.90
18163;DHT22;9206;50.994;4.538;2023-08-31T04:01:42;11.60;99.90
18163;DHT22;9206;50.994;4.538;2023-08-31T04:04:32;11.60;99.90
18163;DHT22;9206;50.994;4.538;2023-08-31T04:07:24;11.50;99.90
18163;DHT22;9206;50.994;4.538;2023-08-31T04:10:11;11.50;99.90
18163;DHT22;9206;50.994;4.538;2023-08-31T04:13:05;11.50;99.90
18163;DHT22;9206;50.994;4.538;2023-08-31T04:15:52;11.40;99.90
18163;DHT22;9206;50.994;4.538;2023-08-31T04:18:44;11.40;99.90
18163;DHT22;9206;50.994;4.538;2023-08-31T04:21:43;11.40;99.90
18163;DHT22;9206;50.994;4.538;2023-08-31T04:24:33;11.40;99.90
18163;DHT22;9206;50.994;4.538;2023-08-31T04:27:21;11.50;99.90
18163;DHT22;9206;50.994;4.538;2023-08-31T04:30:11;11.50;99.90
18163;DHT22;9206;50.994;4.538;2023-08-31T04:33:08;11.50;99.90
18163;DHT22;9206;50.994;4.538;2023-08-31T04:36:16;11.50;99.90
18163;DHT22;9206;50.994;4.538;2023-08-31T04:39:16;11.50;99.90
18163;DHT22;9206;50.994;4.538;2023-08-31T04:42:04;11.40;99.90
18163;DHT22;9206;50.994;4.538;2023-08-31T04:45:16;11.50;99.90
18163;DHT22;9206;50.994;4.538;2023-08-31T04:48:10;11.50;99.90
18163;DHT22;9206;50.994;4.538;2023-08-31T04:51:01;11.50;99.90
18163;DHT22;9206;50.994;4.538;2023-08-31T04:53:51;11.40;99.90
18163;DHT22;9206;50.994;4.538;2023-08-31T04:56:39;11.50;99.90
18163;DHT22;9206;50.994;4.538;2023-08-31T04:59:32;11.50;99.90
18163;DHT22;9206;50.994;4.538;2023-08-31T05:02:19;11.50;99.90
18163;DHT22;9206;50.994;4.538;2023-08-31T05:05:16;11.50;99.90
18163;DHT22;9206;50.994;4.538;2023-08-31T05:08:08;11.50;99.90
18163;DHT22;9206;50.994;4.538;2023-08-31T05:11:02;11.50;99.90
18163;DHT22;9206;50.994;4.538;2023-08-31T05:13:55;11.60;99.90
18163;DHT22;9206;50.994;4.538;2023-08-31T05:16:43;11.60;99.90
18163;DHT22;9206;50.994;4.538;2023-08-31T05:19:37;11.60;99.90
18163;DHT22;9206;50.994;4.538;2023-08-31T05:22:38;11.70;99.90
18163;DHT22;9206;50.994;4.538;2023-08-31T05:25:28;11.70;99.90
18163;DHT22;9206;50.994;4.538;2023-08-31T05:28:32;11.80;99.90
18163;DHT22;9206;50.994;4.538;2023-08-31T05:31:22;11.80;99.90
18163;DHT22;9206;50.994;4.538;2023-08-31T05:34:15;11.90;99.90
18163;DHT22;9206;50.994;4.538;2023-08-31T05:37:03;12.00;99.90
18163;DHT22;9206;50.994;4.538;2023-08-31T05:39:55;12.10;99.90
18163;DHT22;9206;50.994;4.538;2023-08-31T05:42:49;12.20;99.90
18163;DHT22;9206;50.994;4.538;2023-08-31T05:45:41;12.30;99.90
18163;DHT22;9206;50.994;4.538;2023-08-31T05:51:59;13.00;99.90
18163;DHT22;9206;50.994;4.538;2023-08-31T05:54:49;13.70;99.90
18163;DHT22;9206;50.994;4.538;2023-08-31T05:57:37;14.20;99.90
18163;DHT22;9206;50.994;4.538;2023-08-31T06:00:25;14.80;99.90
18163;DHT22;9206;50.994;4.538;2023-08-31T06:03:24;15.30;99.90
18163;DHT22;9206;50.994;4.538;2023-08-31T06:06:17;15.60;99.90
18163;DHT22;9206;50.994;4.538;2023-08-31T06:09:11;16.20;99.90
18163;DHT22;9206;50.994;4.538;2023-08-31T06:11:59;16.60;99.90
18163;DHT22;9206;50.994;4.538;2023-08-31T06:14:52;16.90;99.90
18163;DHT22;9206;50.994;4.538;2023-08-31T06:17:43;17.30;99.90
18163;DHT22;9206;50.994;4.538;2023-08-31T06:20:39;17.60;99.90
18163;DHT22;9206;50.994;4.538;2023-08-31T06:23:30;17.80;99.90
18163;DHT22;9206;50.994;4.538;2023-08-31T06:26:19;18.20;99.90
18163;DHT22;9206;50.994;4.538;2023-08-31T06:29:16;18.30;99.90
18163;DHT22;9206;50.994;4.538;2023-08-31T06:32:16;18.70;99.90
18163;DHT22;9206;50.994;4.538;2023-08-31T06:35:08;18.80;99.90
18163;DHT22;9206;50.994;4.538;2023-08-31T06:37:58;19.30;99.90
18163;DHT22;9206;50.994;4.538;2023-08-31T06:40:48;19.70;99.90
18163;DHT22;9206;50.994;4.538;2023-08-31T06:43:41;19.80;99.90
18163;DHT22;9206;50.994;4.538;2023-08-31T06:46:31;20.20;99.90
18163;DHT22;9206;50.994;4.538;2023-08-31T06:49:30;20.40;99.90
18163;DHT22;9206;50.994;4.538;2023-08-31T06:52:28;19.90;99.90
18163;DHT22;9206;50.994;4.538;2023-08-31T06:55:20;19.70;99.90
18163;DHT22;9206;50.994;4.538;2023-08-31T06:58:08;19.80;99.90
18163;DHT22;9206;50.994;4.538;2023-08-31T07:00:55;20.40;99.90
18163;DHT22;9206;50.994;4.538;2023-08-31T07:03:48;20.50;99.90
18163;DHT22;9206;50.994;4.538;2023-08-31T07:06:48;20.60;99.90
18163;DHT22;9206;50.994;4.538;2023-08-31T07:09:38;20.70;99.90
18163;DHT22;9206;50.994;4.538;2023-08-31T07:12:30;20.80;99.90
18163;DHT22;9206;50.994;4.538;2023-08-31T07:15:19;20.50;99.90
18163;DHT22;9206;50.994;4.538;2023-08-31T07:18:06;21.00;99.90
18163;DHT22;9206;50.994;4.538;2023-08-31T07:20:54;21.70;99.90
18163;DHT22;9206;50.994;4.538;2023-08-31T07:23:42;22.50;99.90
18163;DHT22;9206;50.994;4.538;2023-08-31T07:26:32;23.10;99.90
18163;DHT22;9206;50.994;4.538;2023-08-31T07:29:22;23.60;99.90
18163;DHT22;9206;50.994;4.538;2023-08-31T07:32:09;23.90;99.90
18163;DHT22;9206;50.994;4.538;2023-08-31T07:35:06;24.00;99.90
18163;DHT22;9206;50.994;4.538;2023-08-31T07:37:54;23.90;99.90
18163;DHT22;9206;50.994;4.538;2023-08-31T07:40:42;24.00;99.90
18163;DHT22;9206;50.994;4.538;2023-08-31T07:43:30;24.30;99.90
18163;DHT22;9206;50.994;4.538;2023-08-31T07:46:29;24.40;99.90
18163;DHT22;9206;50.994;4.538;2023-08-31T07:49:49;24.50;99.90
18163;DHT22;9206;50.994;4.538;2023-08-31T07:52:42;24.80;99.90
18163;DHT22;9206;50.994;4.538;2023-08-31T07:55:37;25.00;99.90
18163;DHT22;9206;50.994;4.538;2023-08-31T07:59:00;25.40;99.90
18163;DHT22;9206;50.994;4.538;2023-08-31T08:01:52;25.40;99.90
18163;DHT22;9206;50.994;4.538;2023-08-31T08:04:42;25.30;99.90
18163;DHT22;9206;50.994;4.538;2023-08-31T08:07:36;25.10;99.90
18163;DHT22;9206;50.994;4.538;2023-08-31T08:10:53;25.50;99.90
18163;DHT22;9206;50.994;4.538;2023-08-31T08:14:13;26.10;99.90
18163;DHT22;9206;50.994;4.538;2023-08-31T08:17:08;26.80;99.90
18163;DHT22;9206;50.994;4.538;2023-08-31T08:20:17;27.10;99.90
18163;DHT22;9206;50.994;4.538;2023-08-31T08:23:13;27.70;99.90
18163;DHT22;9206;50.994;4.538;2023-08-31T08:26:07;28.10;99.90
18163;DHT22;9206;50.994;4.538;2023-08-31T08:32:44;29.40;99.90
18163;DHT22;9206;50.994;4.538;2023-08-31T08:47:23;29.50;99.90
18163;DHT22;9206;50.994;4.538;2023-08-31T08:50:41;29.70;99.90
18163;DHT22;9206;50.994;4.538;2023-08-31T08:53:55;29.80;99.90
18163;DHT22;9206;50.994;4.538;2023-08-31T08:56:57;28.90;99.90
18163;DHT22;9206;50.994;4.538;2023-08-31T08:59:50;29.20;99.90
18163;DHT22;9206;50.994;4.538;2023-08-31T09:03:59;28.70;99.90
18163;DHT22;9206;50.994;4.538;2023-08-31T09:06:07;29.30;99.90
18163;DHT22;9206;50.994;4.538;2023-08-31T09:09:02;29.50;99.90
18163;DHT22;9206;50.994;4.538;2023-08-31T09:11:50;29.70;99.90
18163;DHT22;9206;50.994;4.538;2023-08-31T09:15:04;30.00;99.90
18163;DHT22;9206;50.994;4.538;2023-08-31T09:17:59;30.50;99.90
18163;DHT22;9206;50.994;4.538;2023-08-31T09:34:52;31.10;99.90
18163;DHT22;9206;50.994;4.538;2023-08-31T09:38:44;30.70;99.90
18163;DHT22;9206;50.994;4.538;2023-08-31T09:41:54;29.20;99.90
18163;DHT22;9206;50.994;4.538;2023-08-31T09:48:39;29.50;99.90
18163;DHT22;9206;50.994;4.538;2023-08-31T10:16:31;31.40;99.90
18163;DHT22;9206;50.994;4.538;2023-08-31T10:19:46;30.80;99.90
18163;DHT22;9206;50.994;4.538;2023-08-31T10:22:36;30.00;99.90
18163;DHT22;9206;50.994;4.538;2023-08-31T10:25:24;29.90;99.90
18163;DHT22;9206;50.994;4.538;2023-08-31T10:28:19;30.00;99.90
18163;DHT22;9206;50.994;4.538;2023-08-31T10:31:08;30.60;99.90
18163;DHT22;9206;50.994;4.538;2023-08-31T10:34:13;31.40;99.90
18163;DHT22;9206;50.994;4.538;2023-08-31T10:37:20;31.80;99.90
18163;DHT22;9206;50.994;4.538;2023-08-31T10:40:29;31.10;99.90
18163;DHT22;9206;50.994;4.538;2023-08-31T10:43:59;30.40;99.90
18163;DHT22;9206;50.994;4.538;2023-08-31T10:47:08;29.20;99.90
18163;DHT22;9206;50.994;4.538;2023-08-31T10:50:22;28.80;99.90
18163;DHT22;9206;50.994;4.538;2023-08-31T10:53:37;29.20;99.90
18163;DHT22;9206;50.994;4.538;2023-08-31T11:00:14;29.60;99.90
18163;DHT22;9206;50.994;4.538;2023-08-31T11:03:58;29.10;99.90
18163;DHT22;9206;50.994;4.538;2023-08-31T11:07:17;29.40;99.90
18163;DHT22;9206;50.994;4.538;2023-08-31T11:10:12;28.30;99.90
18163;DHT22;9206;50.994;4.538;2023-08-31T11:13:02;29.40;99.90
18163;DHT22;9206;50.994;4.538;2023-08-31T11:15:50;29.80;99.90
18163;DHT22;9206;50.994;4.538;2023-08-31T11:18:40;30.60;99.90
18163;DHT22;9206;50.994;4.538;2023-08-31T11:21:27;30.90;99.90
18163;DHT22;9206;50.994;4.538;2023-08-31T11:24:19;30.00;99.90
18163;DHT22;9206;50.994;4.538;2023-08-31T11:27:13;28.80;99.90
18163;DHT22;9206;50.994;4.538;2023-08-31T11:30:02;27.90;99.90
18163;DHT22;9206;50.994;4.538;2023-08-31T11:33:01;27.00;99.90
18163;DHT22;9206;50.994;4.538;2023-08-31T11:35:58;26.20;99.90
18163;DHT22;9206;50.994;4.538;2023-08-31T11:38:49;26.60;99.90
18163;DHT22;9206;50.994;4.538;2023-08-31T11:42:35;27.70;99.90
18163;DHT22;9206;50.994;4.538;2023-08-31T11:45:15;28.30;99.90
18163;DHT22;9206;50.994;4.538;2023-08-31T11:48:04;26.90;99.90
18163;DHT22;9206;50.994;4.538;2023-08-31T11:50:52;26.70;99.90
18163;DHT22;9206;50.994;4.538;2023-08-31T11:53:40;26.40;99.90
18163;DHT22;9206;50.994;4.538;2023-08-31T11:56:40;26.50;99.90
18163;DHT22;9206;50.994;4.538;2023-08-31T11:59:40;25.90;99.90
18163;DHT22;9206;50.994;4.538;2023-08-31T12:02:37;25.20;99.90
18163;DHT22;9206;50.994;4.538;2023-08-31T12:05:29;25.40;99.90
18163;DHT22;9206;50.994;4.538;2023-08-31T12:08:23;25.30;99.90
18163;DHT22;9206;50.994;4.538;2023-08-31T12:11:13;25.60;99.90
18163;DHT22;9206;50.994;4.538;2023-08-31T12:14:20;25.30;99.90
18163;DHT22;9206;50.994;4.538;2023-08-31T12:17:30;25.40;99.90
18163;DHT22;9206;50.994;4.538;2023-08-31T12:20:25;24.60;99.90
18163;DHT22;9206;50.994;4.538;2023-08-31T12:23:14;24.10;99.90
18163;DHT22;9206;50.994;4.538;2023-08-31T12:26:13;23.60;99.90
18163;DHT22;9206;50.994;4.538;2023-08-31T12:29:13;23.50;99.90
18163;DHT22;9206;50.994;4.538;2023-08-31T12:32:02;23.40;99.90
18163;DHT22;9206;50.994;4.538;2023-08-31T12:34:52;23.70;99.90
18163;DHT22;9206;50.994;4.538;2023-08-31T12:37:39;23.90;99.90
18163;DHT22;9206;50.994;4.538;2023-08-31T12:40:32;23.30;99.90
18163;DHT22;9206;50.994;4.538;2023-08-31T12:43:20;22.90;99.90
18163;DHT22;9206;50.994;4.538;2023-08-31T12:46:07;23.00;99.90
18163;DHT22;9206;50.994;4.538;2023-08-31T12:49:01;23.20;99.90
18163;DHT22;9206;50.994;4.538;2023-08-31T12:51:51;23.30;99.90
18163;DHT22;9206;50.994;4.538;2023-08-31T12:54:40;23.20;99.90
18163;DHT22;9206;50.994;4.538;2023-08-31T12:57:38;23.30;99.90
18163;DHT22;9206;50.994;4.538;2023-08-31T13:00:33;23.10;99.90
18163;DHT22;9206;50.994;4.538;2023-08-31T13:03:26;22.80;99.90
18163;DHT22;9206;50.994;4.538;2023-08-31T13:10:13;22.30;99.90
18163;DHT22;9206;50.994;4.538;2023-08-31T13:13:17;22.30;99.90
18163;DHT22;9206;50.994;4.538;2023-08-31T13:16:11;22.40;99.90
18163;DHT22;9206;50.994;4.538;2023-08-31T13:19:01;22.60;99.90
18163;DHT22;9206;50.994;4.538;2023-08-31T13:24:56;22.80;99.90
18163;DHT22;9206;50.994;4.538;2023-08-31T13:27:47;22.70;99.90
18163;DHT22;9206;50.994;4.538;2023-08-31T13:30:35;22.80;99.90
18163;DHT22;9206;50.994;4.538;2023-08-31T13:33:25;22.80;99.90
18163;DHT22;9206;50.994;4.538;2023-08-31T13:36:16;22.60;99.90
18163;DHT22;9206;50.994;4.538;2023-08-31T13:39:06;22.50;99.90
18163;DHT22;9206;50.994;4.538;2023-08-31T13:41:59;22.50;99.90
18163;DHT22;9206;50.994;4.538;2023-08-31T13:44:53;22.80;99.90
18163;DHT22;9206;50.994;4.538;2023-08-31T13:47:55;23.00;99.90
18163;DHT22;9206;50.994;4.538;2023-08-31T13:51:16;23.30;99.90
18163;DHT22;9206;50.994;4.538;2023-08-31T13:54:04;23.20;99.90
18163;DHT22;9206;50.994;4.538;2023-08-31T13:56:54;23.10;99.90
18163;DHT22;9206;50.994;4.538;2023-08-31T13:59:45;23.10;99.90
18163;DHT22;9206;50.994;4.538;2023-08-31T14:02:42;23.40;99.90
18163;DHT22;9206;50.994;4.538;2023-08-31T14:05:31;23.70;99.90
18163;DHT22;9206;50.994;4.538;2023-08-31T14:08:20;23.70;99.90
18163;DHT22;9206;50.994;4.538;2023-08-31T14:11:39;23.50;99.90
18163;DHT22;9206;50.994;4.538;2023-08-31T14:14:29;23.50;99.90
18163;DHT22;9206;50.994;4.538;2023-08-31T14:17:18;23.60;99.90
18163;DHT22;9206;50.994;4.538;2023-08-31T14:20:10;23.70;99.90
18163;DHT22;9206;50.994;4.538;2023-08-31T14:22:59;23.70;99.90
18163;DHT22;9206;50.994;4.538;2023-08-31T14:25:50;23.80;99.90
18163;DHT22;9206;50.994;4.538;2023-08-31T14:28:44;24.00;99.90
18163;DHT22;9206;50.994;4.538;2023-08-31T14:31:46;23.70;99.90
18163;DHT22;9206;50.994;4.538;2023-08-31T14:34:39;23.50;99.90
18163;DHT22;9206;50.994;4.538;2023-08-31T14:37:31;23.80;99.90
18163;DHT22;9206;50.994;4.538;2023-08-31T14:40:19;23.80;99.90
18163;DHT22;9206;50.994;4.538;2023-08-31T14:46:05;23.30;99.90
18163;DHT22;9206;50.994;4.538;2023-08-31T14:49:08;23.30;99.90
18163;DHT22;9206;50.994;4.538;2023-08-31T14:52:01;23.20;99.90
18163;DHT22;9206;50.994;4.538;2023-08-31T14:54:55;23.20;99.90
18163;DHT22;9206;50.994;4.538;2023-08-31T14:58:14;22.90;99.90
18163;DHT22;9206;50.994;4.538;2023-08-31T15:04:21;22.80;99.90
18163;DHT22;9206;50.994;4.538;2023-08-31T15:07:14;22.80;99.90
18163;DHT22;9206;50.994;4.538;2023-08-31T15:10:08;22.80;99.90
18163;DHT22;9206;50.994;4.538;2023-08-31T15:12:59;22.60;99.90
18163;DHT22;9206;50.994;4.538;2023-08-31T15:15:49;22.50;99.90
18163;DHT22;9206;50.994;4.538;2023-08-31T15:18:36;22.30;99.90
18163;DHT22;9206;50.994;4.538;2023-08-31T15:21:30;22.10;99.90
18163;DHT22;9206;50.994;4.538;2023-08-31T15:24:19;22.10;99.90
18163;DHT22;9206;50.994;4.538;2023-08-31T15:27:08;22.10;99.90
18163;DHT22;9206;50.994;4.538;2023-08-31T15:29:57;22.00;99.90
18163;DHT22;9206;50.994;4.538;2023-08-31T15:32:51;21.90;99.90
18163;DHT22;9206;50.994;4.538;2023-08-31T15:36:02;21.80;99.90
18163;DHT22;9206;50.994;4.538;2023-08-31T15:38:52;21.80;99.90
18163;DHT22;9206;50.994;4.538;2023-08-31T15:41:41;21.80;99.90
18163;DHT22;9206;50.994;4.538;2023-08-31T15:44:30;21.80;99.90
18163;DHT22;9206;50.994;4.538;2023-08-31T15:47:18;21.90;99.90
18163;DHT22;9206;50.994;4.538;2023-08-31T15:50:09;21.80;99.90
18163;DHT22;9206;50.994;4.538;2023-08-31T15:52:57;21.50;99.90
18163;DHT22;9206;50.994;4.538;2023-08-31T15:55:51;21.40;99.90
18163;DHT22;9206;50.994;4.538;2023-08-31T15:58:43;21.20;99.90
18163;DHT22;9206;50.994;4.538;2023-08-31T16:01:34;21.20;99.90
18163;DHT22;9206;50.994;4.538;2023-08-31T16:04:22;20.90;99.90
18163;DHT22;9206;50.994;4.538;2023-08-31T16:07:15;20.90;99.90
18163;DHT22;9206;50.994;4.538;2023-08-31T16:10:05;20.90;99.90
18163;DHT22;9206;50.994;4.538;2023-08-31T16:12:55;20.80;99.90
18163;DHT22;9206;50.994;4.538;2023-08-31T16:15:45;20.50;99.90
18163;DHT22;9206;50.994;4.538;2023-08-31T16:18:44;20.40;99.90
18163;DHT22;9206;50.994;4.538;2023-08-31T16:21:40;20.40;99.90
18163;DHT22;9206;50.994;4.538;2023-08-31T16:24:30;20.30;99.90
18163;DHT22;9206;50.994;4.538;2023-08-31T16:27:18;20.30;99.90
18163;DHT22;9206;50.994;4.538;2023-08-31T16:31:29;20.10;99.90
18163;DHT22;9206;50.994;4.538;2023-08-31T16:40:50;19.80;99.90
18163;DHT22;9206;50.994;4.538;2023-08-31T16:44:04;19.70;99.90
18163;DHT22;9206;50.994;4.538;2023-08-31T16:46:55;19.60;99.90
18163;DHT22;9206;50.994;4.538;2023-08-31T16:50:04;19.50;99.90
18163;DHT22;9206;50.994;4.538;2023-08-31T16:52:57;19.40;99.90
18163;DHT22;9206;50.994;4.538;2023-08-31T16:55:46;19.40;99.90
18163;DHT22;9206;50.994;4.538;2023-08-31T16:58:42;19.30;99.90
18163;DHT22;9206;50.994;4.538;2023-08-31T17:01:30;19.20;99.90
18163;DHT22;9206;50.994;4.538;2023-08-31T17:04:17;19.10;99.90
18163;DHT22;9206;50.994;4.538;2023-08-31T17:07:39;19.00;99.90
18163;DHT22;9206;50.994;4.538;2023-08-31T17:14:06;18.70;99.90
18163;DHT22;9206;50.994;4.538;2023-08-31T17:17:08;18.70;99.90
18163;DHT22;9206;50.994;4.538;2023-08-31T17:19:57;18.60;99.90
18163;DHT22;9206;50.994;4.538;2023-08-31T17:23:15;18.60;99.90
18163;DHT22;9206;50.994;4.538;2023-08-31T17:29:25;18.40;99.90
18163;DHT22;9206;50.994;4.538;2023-08-31T17:32:24;18.40;99.90
18163;DHT22;9206;50.994;4.538;2023-08-31T17:35:14;18.30;99.90
18163;DHT22;9206;50.994;4.538;2023-08-31T17:38:23;18.20;99.90
18163;DHT22;9206;50.994;4.538;2023-08-31T17:41:27;18.20;99.90
18163;DHT22;9206;50.994;4.538;2023-08-31T17:44:16;18.10;99.90
18163;DHT22;9206;50.994;4.538;2023-08-31T17:47:07;18.00;99.90
18163;DHT22;9206;50.994;4.538;2023-08-31T17:50:00;18.00;99.90
18163;DHT22;9206;50.994;4.538;2023-08-31T17:52:58;17.90;99.90
18163;DHT22;9206;50.994;4.538;2023-08-31T17:55:50;17.80;99.90
18163;DHT22;9206;50.994;4.538;2023-08-31T17:58:37;17.80;99.90
18163;DHT22;9206;50.994;4.538;2023-08-31T18:01:31;17.70;99.90
18163;DHT22;9206;50.994;4.538;2023-08-31T18:04:26;17.70;99.90
18163;DHT22;9206;50.994;4.538;2023-08-31T18:07:19;17.60;99.90
18163;DHT22;9206;50.994;4.538;2023-08-31T18:10:15;17.40;99.90
18163;DHT22;9206;50.994;4.538;2023-08-31T18:13:04;17.40;99.90
18163;DHT22;9206;50.994;4.538;2023-08-31T18:15:51;17.30;99.90
18163;DHT22;9206;50.994;4.538;2023-08-31T18:18:42;17.20;99.90
18163;DHT22;9206;50.994;4.538;2023-08-31T18:21:33;17.10;99.90
18163;DHT22;9206;50.994;4.538;2023-08-31T18:24:22;17.10;99.90
18163;DHT22;9206;50.994;4.538;2023-08-31T18:27:09;17.10;99.90
18163;DHT22;9206;50.994;4.538;2023-08-31T18:29:59;17.00;99.90
18163;DHT22;9206;50.994;4.538;2023-08-31T18:32:48;17.00;99.90
18163;DHT22;9206;50.994;4.538;2023-08-31T18:35:36;16.90;99.90
18163;DHT22;9206;50.994;4.538;2023-08-31T18:38:25;16.90;99.90
18163;DHT22;9206;50.994;4.538;2023-08-31T18:41:13;16.80;99.90
18163;DHT22;9206;50.994;4.538;2023-08-31T18:44:01;16.80;99.90
18163;DHT22;9206;50.994;4.538;2023-08-31T18:46:48;16.80;99.90
18163;DHT22;9206;50.994;4.538;2023-08-31T18:49:37;16.70;99.90
18163;DHT22;9206;50.994;4.538;2023-08-31T18:52:24;16.70;99.90
18163;DHT22;9206;50.994;4.538;2023-08-31T18:55:15;16.70;99.90
18163;DHT22;9206;50.994;4.538;2023-08-31T18:58:15;16.60;99.90
18163;DHT22;9206;50.994;4.538;2023-08-31T19:01:03;16.60;99.90
18163;DHT22;9206;50.994;4.538;2023-08-31T19:03:51;16.60;99.90
18163;DHT22;9206;50.994;4.538;2023-08-31T19:06:48;16.60;99.90
18163;DHT22;9206;50.994;4.538;2023-08-31T19:09:41;16.60;99.90
18163;DHT22;9206;50.994;4.538;2023-08-31T19:12:50;16.60;99.90
18163;DHT22;9206;50.994;4.538;2023-08-31T19:15:42;16.50;99.90
18163;DHT22;9206;50.994;4.538;2023-08-31T19:22:24;16.20;99.90
18163;DHT22;9206;50.994;4.538;2023-08-31T19:25:14;16.20;99.90
18163;DHT22;9206;50.994;4.538;2023-08-31T19:28:07;16.10;99.90
18163;DHT22;9206;50.994;4.538;2023-08-31T19:31:02;16.10;99.90
18163;DHT22;9206;50.994;4.538;2023-08-31T19:33:54;16.00;99.90
18163;DHT22;9206;50.994;4.538;2023-08-31T19:36:42;16.00;99.90
18163;DHT22;9206;50.994;4.538;2023-08-31T19:39:31;15.90;99.90
18163;DHT22;9206;50.994;4.538;2023-08-31T19:42:20;15.90;99.90
18163;DHT22;9206;50.994;4.538;2023-08-31T19:45:46;15.90;99.90
18163;DHT22;9206;50.994;4.538;2023-08-31T19:56:12;15.70;99.90
18163;DHT22;9206;50.994;4.538;2023-08-31T19:59:03;15.70;99.90
18163;DHT22;9206;50.994;4.538;2023-08-31T20:01:56;15.60;99.90
18163;DHT22;9206;50.994;4.538;2023-08-31T20:05:06;15.60;99.90
18163;DHT22;9206;50.994;4.538;2023-08-31T20:07:57;15.60;99.90
18163;DHT22;9206;50.994;4.538;2023-08-31T20:10:49;15.60;99.90
18163;DHT22;9206;50.994;4.538;2023-08-31T20:13:46;15.60;99.90
18163;DHT22;9206;50.994;4.538;2023-08-31T20:16:34;15.70;99.90
18163;DHT22;9206;50.994;4.538;2023-08-31T20:19:27;15.70;99.90
18163;DHT22;9206;50.994;4.538;2023-08-31T20:22:16;15.70;99.90
18163;DHT22;9206;50.994;4.538;2023-08-31T20:25:06;15.70;99.90
18163;DHT22;9206;50.994;4.538;2023-08-31T20:27:54;15.70;99.90
18163;DHT22;9206;50.994;4.538;2023-08-31T20:30:43;15.80;99.90
18163;DHT22;9206;50.994;4.538;2023-08-31T20:33:32;15.70;99.90
18163;DHT22;9206;50.994;4.538;2023-08-31T20:36:25;15.70;99.90